createdAt,value
2019-03-27T00:03:37.821Z,17.23
2019-03-27T00:08:30.258Z,21.67
2019-03-27T00:13:22.915Z,34.27
2019-03-27T00:18:15.261Z,19.83
2019-03-27T00:23:07.903Z,18.67
2019-03-27T00:28:00.637Z,32.13
2019-03-27T00:32:53.367Z,39.67
2019-03-27T00:37:45.649Z,40.93
2019-03-27T00:42:38.039Z,27.20
2019-03-27T00:47:30.670Z,27.23
2019-03-27T00:52:23.169Z,35.40
2019-03-27T00:57:15.660Z,47.40
2019-03-27T01:02:08.480Z,29.93
2019-03-27T01:07:01.275Z,21.03
2019-03-27T01:11:53.666Z,19.77
2019-03-27T01:16:46.158Z,18.60
2019-03-27T01:21:38.669Z,33.70
2019-03-27T01:26:31.105Z,42.97
2019-03-27T01:31:23.448Z,23.30
2019-03-27T01:36:16.223Z,23.13
2019-03-27T01:41:09.021Z,20.20
2019-03-27T01:46:01.478Z,10.63
2019-03-27T01:50:54.120Z,31.13
2019-03-27T01:55:46.597Z,20.50
2019-03-27T02:00:39.605Z,25.27
2019-03-27T02:05:32.118Z,16.20
2019-03-27T02:10:24.725Z,15.47
2019-03-27T02:15:17.497Z,15.80
2019-03-27T02:20:10.192Z,26.23
2019-03-27T02:25:02.852Z,18.37
2019-03-27T02:29:55.299Z,27.50
2019-03-27T02:34:47.710Z,25.60
2019-03-27T02:39:40.358Z,26.17
2019-03-27T02:44:32.866Z,34.37
2019-03-27T02:49:25.191Z,41.40
2019-03-27T02:54:18.094Z,49.43
2019-03-27T02:59:10.442Z,43.83
2019-03-27T03:04:02.957Z,33.03
2019-03-27T03:08:55.588Z,30.10
2019-03-27T03:13:59.724Z,35.03
2019-03-27T03:18:52.334Z,16.00
2019-03-27T03:23:45.313Z,17.47
2019-03-27T03:28:37.625Z,27.63
2019-03-27T03:33:30.233Z,17.10
2019-03-27T03:38:22.817Z,18.67
2019-03-27T03:43:15.548Z,23.10
2019-03-27T03:48:07.986Z,14.23
2019-03-27T03:53:01.141Z,16.20
2019-03-27T03:57:54.853Z,18.93
2019-03-27T04:02:49.286Z,19.03
2019-03-27T04:07:41.911Z,13.60
2019-03-27T04:12:34.466Z,26.70
2019-03-27T04:17:27.354Z,16.23
2019-03-27T04:22:20.208Z,25.43
2019-03-27T04:27:12.434Z,39.33
2019-03-27T04:32:05.219Z,31.37
2019-03-27T04:36:57.973Z,26.20
2019-03-27T04:41:50.546Z,42.37
2019-03-27T04:46:42.872Z,63.17
2019-03-27T04:51:35.397Z,37.60
2019-03-27T04:56:28.138Z,21.83
2019-03-27T05:01:20.710Z,24.23
2019-03-27T05:06:13.080Z,22.17
2019-03-27T05:11:05.303Z,17.57
2019-03-27T05:15:58.005Z,25.77
2019-03-27T05:20:50.426Z,31.70
2019-03-27T05:25:43.049Z,26.70
2019-03-27T05:30:35.261Z,29.17
2019-03-27T05:35:27.914Z,31.97
2019-03-27T05:40:20.192Z,33.53
2019-03-27T05:45:13.241Z,21.00
2019-03-27T05:50:06.672Z,29.00
2019-03-27T05:54:59.165Z,42.47
2019-03-27T05:59:52.716Z,43.70
2019-03-27T06:04:45.045Z,49.37
2019-03-27T06:09:37.445Z,33.33
2019-03-27T06:14:30.039Z,34.67
2019-03-27T06:19:25.433Z,30.17
2019-03-27T06:24:18.162Z,31.07
2019-03-27T06:29:10.597Z,16.43
2019-03-27T06:34:03.081Z,27.40
2019-03-27T06:38:55.726Z,13.03
2019-03-27T06:43:48.203Z,21.30
2019-03-27T06:48:40.634Z,30.63
2019-03-27T06:53:33.017Z,34.90
2019-03-27T06:58:25.449Z,25.97
2019-03-27T07:03:17.982Z,37.43
2019-03-27T07:08:10.589Z,37.67
2019-03-27T07:13:03.115Z,30.50
2019-03-27T07:17:55.769Z,42.73
2019-03-27T07:22:48.446Z,38.50
2019-03-27T07:27:40.773Z,21.53
2019-03-27T07:32:33.176Z,28.53
2019-03-27T07:37:25.797Z,18.75
2019-03-27T07:42:18.413Z,20.08
2019-03-27T07:47:10.707Z,19.52
2019-03-27T07:52:03.609Z,21.10
2019-03-27T07:56:55.998Z,21.77
2019-03-27T08:01:48.683Z,19.50
2019-03-27T08:06:41.174Z,20.35
2019-03-27T08:11:33.868Z,25.40
2019-03-27T08:16:26.424Z,21.05
2019-03-27T08:21:18.954Z,23.07
2019-03-27T08:26:11.418Z,20.12
2019-03-27T08:31:03.659Z,21.87
2019-03-27T08:35:56.121Z,20.12
2019-03-27T08:40:48.721Z,23.15
2019-03-27T08:45:41.317Z,21.75
2019-03-27T08:50:33.836Z,18.07
2019-03-27T08:55:26.153Z,15.78
2019-03-27T09:00:21.788Z,26.20
2019-03-27T09:05:14.178Z,20.30
2019-03-27T09:10:08.852Z,20.45
2019-03-27T09:15:01.522Z,17.52
2019-03-27T09:19:54.146Z,16.73
2019-03-27T09:24:46.630Z,12.13
2019-03-27T09:29:39.025Z,11.38
2019-03-27T09:34:31.722Z,9.28
2019-03-27T09:39:24.094Z,11.18
2019-03-27T09:44:16.710Z,13.85
2019-03-27T09:49:09.538Z,12.23
2019-03-27T09:54:01.805Z,13.32
2019-03-27T09:58:54.489Z,13.83
2019-03-27T10:03:46.795Z,13.30
2019-03-27T10:08:39.823Z,11.75
2019-03-27T10:13:32.159Z,13.45
2019-03-27T10:18:24.676Z,9.38
2019-03-27T10:23:17.501Z,11.22
2019-03-27T10:28:10.114Z,12.15
2019-03-27T10:33:02.594Z,10.35
2019-03-27T10:37:55.370Z,11.90
2019-03-27T10:42:48.237Z,14.30
2019-03-27T10:47:40.653Z,11.40
2019-03-27T10:52:33.183Z,11.97
2019-03-27T10:57:25.614Z,14.70
2019-03-27T11:02:18.471Z,16.82
2019-03-27T11:07:11.002Z,13.98
2019-03-27T11:12:03.688Z,16.37
2019-03-27T11:16:56.071Z,12.75
2019-03-27T11:21:48.918Z,12.95
2019-03-27T11:26:41.433Z,13.15
2019-03-27T11:31:34.038Z,16.20
2019-03-27T11:36:26.557Z,12.78
2019-03-27T11:41:19.240Z,14.80
2019-03-27T11:46:11.802Z,18.98
2019-03-27T11:51:04.545Z,15.25
2019-03-27T11:55:57.209Z,15.72
2019-03-27T12:00:54.890Z,13.10
2019-03-27T12:05:45.709Z,16.32
2019-03-27T12:10:37.541Z,11.55
2019-03-27T12:15:57.067Z,12.93
2019-03-27T12:20:58.875Z,18.05
2019-03-27T12:25:44.014Z,12.20
2019-03-27T12:30:36.638Z,13.58
2019-03-27T12:35:29.176Z,11.68
2019-03-27T12:40:21.597Z,15.72
2019-03-27T12:45:14.719Z,13.00
2019-03-27T12:50:08.686Z,15.45
2019-03-27T12:55:01.346Z,12.63
2019-03-27T12:59:53.941Z,13.35
2019-03-27T13:04:46.425Z,14.10
2019-03-27T13:09:41.025Z,11.55
2019-03-27T13:14:33.733Z,11.00
2019-03-27T13:19:26.481Z,11.55
2019-03-27T13:24:19.159Z,13.53
2019-03-27T13:29:12.009Z,14.70
2019-03-27T13:34:04.789Z,13.20
2019-03-27T13:38:57.365Z,14.00
2019-03-27T13:43:50.009Z,9.93
2019-03-27T13:48:42.648Z,11.90
2019-03-27T13:53:34.933Z,12.68
2019-03-27T13:58:27.287Z,9.93
2019-03-27T14:03:20.053Z,8.45
2019-03-27T14:08:12.976Z,10.85
2019-03-27T14:13:05.489Z,9.58
2019-03-27T14:17:57.941Z,15.95
2019-03-27T14:22:50.565Z,12.23
2019-03-27T14:27:45.367Z,13.53
2019-03-27T14:32:37.822Z,13.58
2019-03-27T14:37:29.933Z,10.82
2019-03-27T14:42:22.366Z,13.25
2019-03-27T14:47:14.989Z,15.63
2019-03-27T14:52:08.522Z,14.18
2019-03-27T14:57:01.557Z,14.00
2019-03-27T15:01:54.108Z,14.38
2019-03-27T15:06:46.972Z,13.60
2019-03-27T15:11:39.619Z,13.93
2019-03-27T15:16:31.976Z,15.85
2019-03-27T15:21:24.561Z,12.33
2019-03-27T15:26:16.918Z,11.03
2019-03-27T15:31:19.766Z,13.83
2019-03-27T15:36:03.488Z,14.83
2019-03-27T15:40:56.245Z,17.02
2019-03-27T15:45:48.624Z,14.55
2019-03-27T15:50:55.251Z,14.60
2019-03-27T15:55:35.713Z,13.70
2019-03-27T16:00:28.369Z,15.53
2019-03-27T16:05:21.102Z,15.18
2019-03-27T16:10:13.686Z,14.00
2019-03-27T16:15:09.973Z,13.05
2019-03-27T16:20:02.334Z,11.30
2019-03-27T16:24:55.023Z,13.30
2019-03-27T16:29:47.579Z,10.63
2019-03-27T16:34:40.427Z,11.83
2019-03-27T16:39:33.071Z,12.73
2019-03-27T16:44:25.897Z,13.85
2019-03-27T16:49:18.146Z,11.90
2019-03-27T16:54:10.908Z,14.13
2019-03-27T16:59:03.861Z,13.40
2019-03-27T17:03:56.205Z,14.93
2019-03-27T17:08:48.593Z,11.80
2019-03-27T17:13:41.079Z,16.70
2019-03-27T17:18:33.831Z,16.05
2019-03-27T17:23:26.314Z,13.98
2019-03-27T17:28:18.889Z,13.58
2019-03-27T17:33:11.391Z,17.62
2019-03-27T17:38:04.142Z,16.85
2019-03-27T17:42:56.473Z,15.80
2019-03-27T17:47:48.958Z,13.58
2019-03-27T17:52:41.844Z,15.68
2019-03-27T17:57:34.335Z,19.77
2019-03-27T18:02:26.669Z,20.15
2019-03-27T18:07:19.309Z,18.52
2019-03-27T18:12:12.138Z,15.13
2019-03-27T18:17:04.445Z,24.85
2019-03-27T18:22:07.139Z,35.65
2019-03-27T18:26:50.923Z,49.42
2019-03-27T18:31:43.745Z,47.43
2019-03-27T18:36:36.184Z,60.13
2019-03-27T18:41:28.573Z,127.27
2019-03-27T18:46:21.364Z,45.78
2019-03-27T18:51:13.778Z,58.17
2019-03-27T18:56:06.173Z,39.25
2019-03-27T19:00:58.825Z,58.50
2019-03-27T19:05:51.681Z,36.40
2019-03-27T19:10:44.334Z,34.33
2019-03-27T19:15:37.135Z,27.63
2019-03-27T19:20:30.025Z,28.60
2019-03-27T19:25:22.864Z,26.93
2019-03-27T19:30:15.667Z,32.97
2019-03-27T19:35:08.570Z,33.60
2019-03-27T19:40:01.239Z,25.97
2019-03-27T19:44:54.686Z,31.30
2019-03-27T19:49:49.043Z,28.93
2019-03-27T19:54:41.290Z,22.97
2019-03-27T19:59:33.994Z,22.17
2019-03-27T20:04:26.448Z,21.03
2019-03-27T20:09:19.093Z,27.20
2019-03-27T20:14:11.633Z,33.30
2019-03-27T20:19:04.353Z,23.77
2019-03-27T20:23:56.753Z,27.77
2019-03-27T20:28:49.514Z,20.07
2019-03-27T20:33:42.084Z,21.17
2019-03-27T20:38:35.028Z,23.07
2019-03-27T20:43:27.633Z,18.77
2019-03-27T20:48:20.282Z,21.87
2019-03-27T20:53:12.871Z,28.33
2019-03-27T20:58:05.648Z,36.53
2019-03-27T21:02:57.970Z,27.43
2019-03-27T21:07:50.670Z,31.77
2019-03-27T21:13:02.561Z,33.00
2019-03-27T21:17:55.081Z,28.40
2019-03-27T21:22:47.991Z,26.87
2019-03-27T21:27:44.126Z,29.50
2019-03-27T21:32:35.962Z,30.97
2019-03-27T21:37:28.690Z,20.40
2019-03-27T21:42:21.380Z,37.63
2019-03-27T21:47:14.228Z,57.00
2019-03-27T21:52:06.931Z,30.67
2019-03-27T21:56:59.320Z,34.37
2019-03-27T22:01:51.725Z,40.30
2019-03-27T22:06:44.502Z,75.70
2019-03-27T22:11:36.864Z,45.47
2019-03-27T22:16:29.541Z,25.87
2019-03-27T22:21:22.132Z,27.00
2019-03-27T22:26:14.759Z,66.27
2019-03-27T22:31:07.369Z,69.37
2019-03-27T22:36:00.264Z,57.60
2019-03-27T22:40:53.003Z,78.93
2019-03-27T22:45:45.445Z,77.90
2019-03-27T22:50:38.009Z,59.17
2019-03-27T22:55:30.601Z,42.77
2019-03-27T23:00:24.548Z,44.47
2019-03-27T23:05:17.227Z,31.53
2019-03-27T23:10:10.257Z,44.57
2019-03-27T23:15:03.066Z,63.30
2019-03-27T23:19:55.830Z,44.70
2019-03-27T23:24:48.172Z,34.87
2019-03-27T23:29:40.617Z,27.50
2019-03-27T23:34:33.053Z,27.00
2019-03-27T23:39:25.710Z,18.87
2019-03-27T23:44:18.181Z,90.20
2019-03-27T23:49:10.624Z,132.03
2019-03-27T23:54:03.220Z,42.90
2019-03-27T23:58:55.730Z,61.23
